sensor_id;sensor_type;location;lat;lon;timestamp;P1;durP1;ratioP1;P2;durP2;ratioP2
75890;SDS011;64571;47.512;19.054;2022-11-09T00:00:03;47.38;;;19.15;;
75890;SDS011;64571;47.512;19.054;2022-11-09T00:03:06;50.70;;;20.10;;
75890;SDS011;64571;47.512;19.054;2022-11-09T00:06:08;49.25;;;19.30;;
75890;SDS011;64571;47.512;19.054;2022-11-09T00:09:11;50.97;;;20.25;;
75890;SDS011;64571;47.512;19.054;2022-11-09T00:12:13;52.37;;;20.17;;
75890;SDS011;64571;47.512;19.054;2022-11-09T00:15:16;46.95;;;17.70;;
75890;SDS011;64571;47.512;19.054;2022-11-09T00:18:18;48.85;;;18.73;;
75890;SDS011;64571;47.512;19.054;2022-11-09T00:21:21;49.25;;;20.55;;
75890;SDS011;64571;47.512;19.054;2022-11-09T00:24:25;48.65;;;20.00;;
75890;SDS011;64571;47.512;19.054;2022-11-09T00:27:27;45.40;;;20.37;;
75890;SDS011;64571;47.512;19.054;2022-11-09T00:30:30;48.13;;;18.60;;
75890;SDS011;64571;47.512;19.054;2022-11-09T00:33:33;49.63;;;19.30;;
75890;SDS011;64571;47.512;19.054;2022-11-09T00:36:36;45.20;;;18.45;;
75890;SDS011;64571;47.512;19.054;2022-11-09T00:39:40;49.90;;;19.83;;
75890;SDS011;64571;47.512;19.054;2022-11-09T00:42:43;52.07;;;18.70;;
75890;SDS011;64571;47.512;19.054;2022-11-09T00:45:49;41.95;;;18.98;;
75890;SDS011;64571;47.512;19.054;2022-11-09T00:48:52;46.33;;;19.48;;
75890;SDS011;64571;47.512;19.054;2022-11-09T00:51:55;45.20;;;19.27;;
75890;SDS011;64571;47.512;19.054;2022-11-09T00:54:58;55.05;;;19.95;;
75890;SDS011;64571;47.512;19.054;2022-11-09T00:58:00;51.20;;;19.37;;
75890;SDS011;64571;47.512;19.054;2022-11-09T01:01:07;45.75;;;19.17;;
75890;SDS011;64571;47.512;19.054;2022-11-09T01:04:12;49.97;;;18.58;;
75890;SDS011;64571;47.512;19.054;2022-11-09T01:07:14;50.90;;;19.87;;
75890;SDS011;64571;47.512;19.054;2022-11-09T01:10:17;49.22;;;19.67;;
75890;SDS011;64571;47.512;19.054;2022-11-09T01:13:20;48.40;;;19.10;;
75890;SDS011;64571;47.512;19.054;2022-11-09T01:16:23;47.88;;;18.45;;
75890;SDS011;64571;47.512;19.054;2022-11-09T01:19:25;55.70;;;19.00;;
75890;SDS011;64571;47.512;19.054;2022-11-09T01:22:29;42.00;;;17.80;;
75890;SDS011;64571;47.512;19.054;2022-11-09T01:25:32;48.05;;;19.58;;
75890;SDS011;64571;47.512;19.054;2022-11-09T01:28:34;48.47;;;18.40;;
75890;SDS011;64571;47.512;19.054;2022-11-09T01:31:37;49.03;;;18.65;;
75890;SDS011;64571;47.512;19.054;2022-11-09T01:34:39;43.90;;;19.02;;
75890;SDS011;64571;47.512;19.054;2022-11-09T01:37:42;45.50;;;17.30;;
75890;SDS011;64571;47.512;19.054;2022-11-09T01:40:44;46.90;;;17.20;;
75890;SDS011;64571;47.512;19.054;2022-11-09T01:47:22;45.40;;;16.83;;
75890;SDS011;64571;47.512;19.054;2022-11-09T01:50:28;46.97;;;17.65;;
75890;SDS011;64571;47.512;19.054;2022-11-09T01:53:39;48.95;;;17.23;;
75890;SDS011;64571;47.512;19.054;2022-11-09T01:56:44;45.15;;;17.90;;
75890;SDS011;64571;47.512;19.054;2022-11-09T01:59:51;47.50;;;20.00;;
75890;SDS011;64571;47.512;19.054;2022-11-09T02:02:59;50.60;;;17.05;;
75890;SDS011;64571;47.512;19.054;2022-11-09T02:06:07;45.12;;;17.12;;
75890;SDS011;64571;47.512;19.054;2022-11-09T02:09:15;42.53;;;16.08;;
75890;SDS011;64571;47.512;19.054;2022-11-09T02:12:38;40.47;;;16.55;;
75890;SDS011;64571;47.512;19.054;2022-11-09T02:15:41;48.33;;;16.67;;
75890;SDS011;64571;47.512;19.054;2022-11-09T02:18:51;42.90;;;16.10;;
75890;SDS011;64571;47.512;19.054;2022-11-09T02:21:57;38.08;;;15.18;;
75890;SDS011;64571;47.512;19.054;2022-11-09T02:25:01;43.60;;;15.75;;
75890;SDS011;64571;47.512;19.054;2022-11-09T02:28:04;41.55;;;16.12;;
75890;SDS011;64571;47.512;19.054;2022-11-09T02:31:08;42.27;;;14.37;;
75890;SDS011;64571;47.512;19.054;2022-11-09T02:34:15;35.13;;;13.68;;
75890;SDS011;64571;47.512;19.054;2022-11-09T02:37:27;40.05;;;15.20;;
75890;SDS011;64571;47.512;19.054;2022-11-09T02:40:33;42.85;;;16.92;;
75890;SDS011;64571;47.512;19.054;2022-11-09T02:43:39;36.97;;;14.93;;
75890;SDS011;64571;47.512;19.054;2022-11-09T02:46:41;41.27;;;16.23;;
75890;SDS011;64571;47.512;19.054;2022-11-09T02:49:44;41.95;;;15.98;;
75890;SDS011;64571;47.512;19.054;2022-11-09T02:52:47;39.47;;;14.43;;
75890;SDS011;64571;47.512;19.054;2022-11-09T02:55:49;41.55;;;16.42;;
75890;SDS011;64571;47.512;19.054;2022-11-09T02:58:51;41.83;;;15.73;;
75890;SDS011;64571;47.512;19.054;2022-11-09T03:01:54;41.23;;;14.87;;
75890;SDS011;64571;47.512;19.054;2022-11-09T03:04:56;35.85;;;14.02;;
75890;SDS011;64571;47.512;19.054;2022-11-09T03:07:59;34.63;;;14.00;;
75890;SDS011;64571;47.512;19.054;2022-11-09T03:11:04;38.25;;;14.82;;
75890;SDS011;64571;47.512;19.054;2022-11-09T03:14:07;41.03;;;15.20;;
75890;SDS011;64571;47.512;19.054;2022-11-09T03:17:13;37.57;;;15.07;;
75890;SDS011;64571;47.512;19.054;2022-11-09T03:20:17;33.63;;;13.98;;
75890;SDS011;64571;47.512;19.054;2022-11-09T03:23:19;34.22;;;14.25;;
75890;SDS011;64571;47.512;19.054;2022-11-09T03:26:22;34.42;;;14.95;;
75890;SDS011;64571;47.512;19.054;2022-11-09T03:29:26;36.47;;;15.07;;
75890;SDS011;64571;47.512;19.054;2022-11-09T03:32:29;34.33;;;14.50;;
75890;SDS011;64571;47.512;19.054;2022-11-09T03:35:31;39.28;;;15.50;;
75890;SDS011;64571;47.512;19.054;2022-11-09T03:38:34;40.03;;;16.55;;
75890;SDS011;64571;47.512;19.054;2022-11-09T03:41:37;39.28;;;14.85;;
75890;SDS011;64571;47.512;19.054;2022-11-09T03:44:39;36.95;;;14.45;;
75890;SDS011;64571;47.512;19.054;2022-11-09T03:47:42;37.80;;;13.80;;
75890;SDS011;64571;47.512;19.054;2022-11-09T03:50:46;33.75;;;13.70;;
75890;SDS011;64571;47.512;19.054;2022-11-09T03:53:48;36.17;;;14.68;;
75890;SDS011;64571;47.512;19.054;2022-11-09T03:56:51;37.65;;;14.90;;
75890;SDS011;64571;47.512;19.054;2022-11-09T03:59:53;35.58;;;14.00;;
75890;SDS011;64571;47.512;19.054;2022-11-09T04:02:55;39.47;;;14.87;;
75890;SDS011;64571;47.512;19.054;2022-11-09T04:05:58;39.85;;;14.68;;
75890;SDS011;64571;47.512;19.054;2022-11-09T04:09:01;37.80;;;14.57;;
75890;SDS011;64571;47.512;19.054;2022-11-09T04:12:05;36.55;;;14.45;;
75890;SDS011;64571;47.512;19.054;2022-11-09T04:15:07;36.10;;;14.27;;
75890;SDS011;64571;47.512;19.054;2022-11-09T04:18:11;34.93;;;14.37;;
75890;SDS011;64571;47.512;19.054;2022-11-09T04:21:15;34.70;;;14.10;;
75890;SDS011;64571;47.512;19.054;2022-11-09T04:24:24;36.90;;;13.13;;
75890;SDS011;64571;47.512;19.054;2022-11-09T04:27:27;37.20;;;14.48;;
75890;SDS011;64571;47.512;19.054;2022-11-09T04:30:31;39.60;;;13.93;;
75890;SDS011;64571;47.512;19.054;2022-11-09T04:33:35;40.53;;;15.10;;
75890;SDS011;64571;47.512;19.054;2022-11-09T04:36:38;38.28;;;15.27;;
75890;SDS011;64571;47.512;19.054;2022-11-09T04:39:40;35.08;;;12.95;;
75890;SDS011;64571;47.512;19.054;2022-11-09T04:42:43;37.50;;;13.95;;
75890;SDS011;64571;47.512;19.054;2022-11-09T04:45:45;33.22;;;13.15;;
75890;SDS011;64571;47.512;19.054;2022-11-09T04:48:48;35.07;;;13.80;;
75890;SDS011;64571;47.512;19.054;2022-11-09T04:51:50;33.60;;;12.55;;
75890;SDS011;64571;47.512;19.054;2022-11-09T04:54:53;36.35;;;14.10;;
75890;SDS011;64571;47.512;19.054;2022-11-09T04:57:55;38.90;;;14.30;;
75890;SDS011;64571;47.512;19.054;2022-11-09T05:01:01;37.30;;;13.60;;
75890;SDS011;64571;47.512;19.054;2022-11-09T05:04:07;39.13;;;15.07;;
75890;SDS011;64571;47.512;19.054;2022-11-09T05:07:10;33.25;;;13.18;;
75890;SDS011;64571;47.512;19.054;2022-11-09T05:10:12;36.78;;;14.20;;
75890;SDS011;64571;47.512;19.054;2022-11-09T05:13:15;37.08;;;14.30;;
75890;SDS011;64571;47.512;19.054;2022-11-09T05:16:18;32.08;;;12.95;;
75890;SDS011;64571;47.512;19.054;2022-11-09T05:19:21;37.97;;;14.40;;
75890;SDS011;64571;47.512;19.054;2022-11-09T05:22:23;37.72;;;15.05;;
75890;SDS011;64571;47.512;19.054;2022-11-09T05:25:44;37.22;;;14.32;;
75890;SDS011;64571;47.512;19.054;2022-11-09T05:28:47;39.58;;;14.52;;
75890;SDS011;64571;47.512;19.054;2022-11-09T05:31:50;39.22;;;14.45;;
75890;SDS011;64571;47.512;19.054;2022-11-09T05:34:54;41.00;;;15.03;;
75890;SDS011;64571;47.512;19.054;2022-11-09T05:37:56;38.13;;;14.10;;
75890;SDS011;64571;47.512;19.054;2022-11-09T05:40:58;41.25;;;14.13;;
75890;SDS011;64571;47.512;19.054;2022-11-09T05:44:01;38.45;;;14.55;;
75890;SDS011;64571;47.512;19.054;2022-11-09T05:47:03;38.60;;;14.05;;
75890;SDS011;64571;47.512;19.054;2022-11-09T05:50:06;44.10;;;15.10;;
75890;SDS011;64571;47.512;19.054;2022-11-09T05:53:10;38.65;;;14.43;;
75890;SDS011;64571;47.512;19.054;2022-11-09T05:56:13;39.97;;;14.82;;
75890;SDS011;64571;47.512;19.054;2022-11-09T05:59:16;43.60;;;15.88;;
75890;SDS011;64571;47.512;19.054;2022-11-09T06:02:18;37.80;;;15.02;;
75890;SDS011;64571;47.512;19.054;2022-11-09T06:05:21;40.43;;;15.37;;
75890;SDS011;64571;47.512;19.054;2022-11-09T06:08:23;39.83;;;14.48;;
75890;SDS011;64571;47.512;19.054;2022-11-09T06:11:26;38.45;;;13.75;;
75890;SDS011;64571;47.512;19.054;2022-11-09T06:14:29;36.60;;;14.27;;
75890;SDS011;64571;47.512;19.054;2022-11-09T06:17:32;41.33;;;14.30;;
75890;SDS011;64571;47.512;19.054;2022-11-09T06:20:34;37.97;;;14.20;;
75890;SDS011;64571;47.512;19.054;2022-11-09T06:23:37;41.25;;;15.15;;
75890;SDS011;64571;47.512;19.054;2022-11-09T06:26:39;34.83;;;13.00;;
75890;SDS011;64571;47.512;19.054;2022-11-09T06:29:42;42.97;;;15.32;;
75890;SDS011;64571;47.512;19.054;2022-11-09T06:32:44;36.20;;;14.32;;
75890;SDS011;64571;47.512;19.054;2022-11-09T06:35:47;37.10;;;14.70;;
75890;SDS011;64571;47.512;19.054;2022-11-09T06:38:56;43.42;;;15.48;;
75890;SDS011;64571;47.512;19.054;2022-11-09T06:41:59;36.10;;;14.50;;
75890;SDS011;64571;47.512;19.054;2022-11-09T06:45:01;42.72;;;15.75;;
75890;SDS011;64571;47.512;19.054;2022-11-09T06:48:04;40.35;;;14.52;;
75890;SDS011;64571;47.512;19.054;2022-11-09T06:51:06;37.50;;;14.10;;
75890;SDS011;64571;47.512;19.054;2022-11-09T06:54:09;37.17;;;13.05;;
75890;SDS011;64571;47.512;19.054;2022-11-09T06:57:11;35.85;;;13.48;;
75890;SDS011;64571;47.512;19.054;2022-11-09T07:00:14;33.83;;;12.63;;
75890;SDS011;64571;47.512;19.054;2022-11-09T07:03:18;36.17;;;12.75;;
75890;SDS011;64571;47.512;19.054;2022-11-09T07:06:22;32.07;;;12.63;;
75890;SDS011;64571;47.512;19.054;2022-11-09T07:09:24;34.78;;;12.82;;
75890;SDS011;64571;47.512;19.054;2022-11-09T07:12:28;36.15;;;12.65;;
75890;SDS011;64571;47.512;19.054;2022-11-09T07:15:30;32.85;;;12.43;;
75890;SDS011;64571;47.512;19.054;2022-11-09T07:18:34;36.10;;;14.40;;
75890;SDS011;64571;47.512;19.054;2022-11-09T07:21:36;33.47;;;12.80;;
75890;SDS011;64571;47.512;19.054;2022-11-09T07:24:38;43.53;;;12.60;;
75890;SDS011;64571;47.512;19.054;2022-11-09T07:27:41;35.30;;;13.30;;
75890;SDS011;64571;47.512;19.054;2022-11-09T07:30:43;34.05;;;12.93;;
75890;SDS011;64571;47.512;19.054;2022-11-09T07:33:46;38.03;;;14.68;;
75890;SDS011;64571;47.512;19.054;2022-11-09T07:36:52;34.10;;;12.93;;
75890;SDS011;64571;47.512;19.054;2022-11-09T07:39:55;34.22;;;12.90;;
75890;SDS011;64571;47.512;19.054;2022-11-09T07:43:01;29.98;;;12.37;;
75890;SDS011;64571;47.512;19.054;2022-11-09T07:46:05;37.42;;;13.80;;
75890;SDS011;64571;47.512;19.054;2022-11-09T07:49:08;36.28;;;14.18;;
75890;SDS011;64571;47.512;19.054;2022-11-09T07:52:10;34.50;;;13.63;;
75890;SDS011;64571;47.512;19.054;2022-11-09T07:55:13;35.55;;;14.45;;
75890;SDS011;64571;47.512;19.054;2022-11-09T07:58:15;34.28;;;13.98;;
75890;SDS011;64571;47.512;19.054;2022-11-09T08:01:18;39.28;;;15.20;;
75890;SDS011;64571;47.512;19.054;2022-11-09T08:04:20;41.22;;;14.50;;
75890;SDS011;64571;47.512;19.054;2022-11-09T08:07:22;40.63;;;14.80;;
75890;SDS011;64571;47.512;19.054;2022-11-09T08:10:26;38.42;;;13.98;;
75890;SDS011;64571;47.512;19.054;2022-11-09T08:13:29;44.28;;;16.08;;
75890;SDS011;64571;47.512;19.054;2022-11-09T08:16:32;46.60;;;15.23;;
75890;SDS011;64571;47.512;19.054;2022-11-09T08:19:38;37.40;;;14.35;;
75890;SDS011;64571;47.512;19.054;2022-11-09T08:22:41;42.80;;;15.13;;
75890;SDS011;64571;47.512;19.054;2022-11-09T08:25:45;39.47;;;14.93;;
75890;SDS011;64571;47.512;19.054;2022-11-09T08:28:48;43.30;;;15.80;;
75890;SDS011;64571;47.512;19.054;2022-11-09T08:31:51;48.63;;;16.70;;
75890;SDS011;64571;47.512;19.054;2022-11-09T08:34:53;40.83;;;16.62;;
75890;SDS011;64571;47.512;19.054;2022-11-09T08:37:58;43.50;;;16.00;;
75890;SDS011;64571;47.512;19.054;2022-11-09T08:41:03;45.90;;;16.45;;
75890;SDS011;64571;47.512;19.054;2022-11-09T08:44:11;44.50;;;16.12;;
75890;SDS011;64571;47.512;19.054;2022-11-09T08:47:14;48.28;;;16.40;;
75890;SDS011;64571;47.512;19.054;2022-11-09T08:50:16;44.50;;;16.02;;
75890;SDS011;64571;47.512;19.054;2022-11-09T08:53:18;48.37;;;17.63;;
75890;SDS011;64571;47.512;19.054;2022-11-09T08:56:21;52.05;;;17.92;;
75890;SDS011;64571;47.512;19.054;2022-11-09T08:59:23;57.45;;;20.15;;
75890;SDS011;64571;47.512;19.054;2022-11-09T09:02:26;47.60;;;17.02;;
75890;SDS011;64571;47.512;19.054;2022-11-09T09:05:28;48.97;;;19.65;;
75890;SDS011;64571;47.512;19.054;2022-11-09T09:08:30;48.93;;;17.57;;
75890;SDS011;64571;47.512;19.054;2022-11-09T09:11:33;51.20;;;18.92;;
75890;SDS011;64571;47.512;19.054;2022-11-09T09:14:36;52.15;;;19.55;;
75890;SDS011;64571;47.512;19.054;2022-11-09T09:17:38;57.28;;;19.45;;
75890;SDS011;64571;47.512;19.054;2022-11-09T09:20:40;49.83;;;19.77;;
75890;SDS011;64571;47.512;19.054;2022-11-09T09:23:45;58.47;;;20.83;;
75890;SDS011;64571;47.512;19.054;2022-11-09T09:26:49;53.72;;;19.27;;
75890;SDS011;64571;47.512;19.054;2022-11-09T09:29:52;54.42;;;20.02;;
75890;SDS011;64571;47.512;19.054;2022-11-09T09:33:00;57.83;;;21.05;;
75890;SDS011;64571;47.512;19.054;2022-11-09T09:36:03;57.03;;;20.80;;
75890;SDS011;64571;47.512;19.054;2022-11-09T09:39:05;59.03;;;21.10;;
75890;SDS011;64571;47.512;19.054;2022-11-09T09:42:18;58.33;;;21.02;;
75890;SDS011;64571;47.512;19.054;2022-11-09T09:45:32;55.30;;;21.92;;
75890;SDS011;64571;47.512;19.054;2022-11-09T09:48:38;56.72;;;21.30;;
75890;SDS011;64571;47.512;19.054;2022-11-09T09:51:53;52.72;;;20.50;;
75890;SDS011;64571;47.512;19.054;2022-11-09T09:58:21;60.80;;;21.20;;
75890;SDS011;64571;47.512;19.054;2022-11-09T10:01:34;54.40;;;21.48;;
75890;SDS011;64571;47.512;19.054;2022-11-09T10:04:39;55.42;;;20.77;;
75890;SDS011;64571;47.512;19.054;2022-11-09T10:11:24;65.80;;;22.40;;
75890;SDS011;64571;47.512;19.054;2022-11-09T10:28:18;65.23;;;23.53;;
75890;SDS011;64571;47.512;19.054;2022-11-09T10:31:29;59.90;;;21.37;;
75890;SDS011;64571;47.512;19.054;2022-11-09T10:34:48;55.97;;;20.73;;
75890;SDS011;64571;47.512;19.054;2022-11-09T10:37:54;66.22;;;24.75;;
75890;SDS011;64571;47.512;19.054;2022-11-09T10:41:00;65.47;;;23.58;;
75890;SDS011;64571;47.512;19.054;2022-11-09T10:44:25;62.93;;;23.43;;
75890;SDS011;64571;47.512;19.054;2022-11-09T10:47:47;65.65;;;24.65;;
75890;SDS011;64571;47.512;19.054;2022-11-09T10:55:16;63.42;;;24.33;;
75890;SDS011;64571;47.512;19.054;2022-11-09T10:58:46;61.55;;;23.50;;
75890;SDS011;64571;47.512;19.054;2022-11-09T11:05:44;59.05;;;22.95;;
75890;SDS011;64571;47.512;19.054;2022-11-09T11:09:19;64.10;;;22.75;;
75890;SDS011;64571;47.512;19.054;2022-11-09T11:12:44;59.88;;;24.95;;
75890;SDS011;64571;47.512;19.054;2022-11-09T11:16:22;61.00;;;25.95;;
75890;SDS011;64571;47.512;19.054;2022-11-09T11:19:48;69.37;;;27.13;;
75890;SDS011;64571;47.512;19.054;2022-11-09T11:23:17;62.05;;;23.67;;
75890;SDS011;64571;47.512;19.054;2022-11-09T11:27:16;64.50;;;25.48;;
75890;SDS011;64571;47.512;19.054;2022-11-09T11:30:33;68.85;;;25.77;;
75890;SDS011;64571;47.512;19.054;2022-11-09T11:33:57;68.28;;;25.15;;
75890;SDS011;64571;47.512;19.054;2022-11-09T11:44:35;69.65;;;26.55;;
75890;SDS011;64571;47.512;19.054;2022-11-09T11:52:05;74.57;;;27.45;;
75890;SDS011;64571;47.512;19.054;2022-11-09T12:07:16;74.80;;;27.95;;
75890;SDS011;64571;47.512;19.054;2022-11-09T12:11:01;76.22;;;27.73;;
75890;SDS011;64571;47.512;19.054;2022-11-09T12:18:25;70.40;;;26.00;;
75890;SDS011;64571;47.512;19.054;2022-11-09T12:25:42;74.55;;;27.10;;
75890;SDS011;64571;47.512;19.054;2022-11-09T12:29:19;72.45;;;26.95;;
75890;SDS011;64571;47.512;19.054;2022-11-09T12:32:44;72.77;;;27.47;;
75890;SDS011;64571;47.512;19.054;2022-11-09T12:36:20;70.12;;;25.62;;
75890;SDS011;64571;47.512;19.054;2022-11-09T12:39:51;64.65;;;26.48;;
75890;SDS011;64571;47.512;19.054;2022-11-09T12:46:51;73.95;;;28.38;;
75890;SDS011;64571;47.512;19.054;2022-11-09T12:50:17;68.13;;;25.43;;
75890;SDS011;64571;47.512;19.054;2022-11-09T12:53:40;80.62;;;26.12;;
75890;SDS011;64571;47.512;19.054;2022-11-09T12:57:03;68.53;;;25.20;;
75890;SDS011;64571;47.512;19.054;2022-11-09T13:03:58;65.07;;;27.60;;
75890;SDS011;64571;47.512;19.054;2022-11-09T13:07:42;76.10;;;27.40;;
75890;SDS011;64571;47.512;19.054;2022-11-09T13:14:57;78.50;;;27.00;;
75890;SDS011;64571;47.512;19.054;2022-11-09T13:18:52;75.68;;;26.17;;
75890;SDS011;64571;47.512;19.054;2022-11-09T13:32:34;85.78;;;30.75;;
75890;SDS011;64571;47.512;19.054;2022-11-09T13:36:15;83.97;;;29.65;;
75890;SDS011;64571;47.512;19.054;2022-11-09T13:39:38;90.93;;;29.58;;
75890;SDS011;64571;47.512;19.054;2022-11-09T13:43:11;86.43;;;29.00;;
75890;SDS011;64571;47.512;19.054;2022-11-09T13:46:37;80.80;;;28.10;;
75890;SDS011;64571;47.512;19.054;2022-11-09T13:49:58;88.97;;;30.62;;
75890;SDS011;64571;47.512;19.054;2022-11-09T13:56:56;91.97;;;31.52;;
75890;SDS011;64571;47.512;19.054;2022-11-09T14:00:21;94.03;;;31.43;;
75890;SDS011;64571;47.512;19.054;2022-11-09T14:03:48;90.93;;;30.98;;
75890;SDS011;64571;47.512;19.054;2022-11-09T14:10:44;86.32;;;29.87;;
75890;SDS011;64571;47.512;19.054;2022-11-09T14:17:56;91.70;;;32.83;;
75890;SDS011;64571;47.512;19.054;2022-11-09T14:21:41;80.15;;;28.90;;
75890;SDS011;64571;47.512;19.054;2022-11-09T14:25:15;80.62;;;29.55;;
75890;SDS011;64571;47.512;19.054;2022-11-09T14:28:37;85.05;;;30.58;;
75890;SDS011;64571;47.512;19.054;2022-11-09T14:32:12;84.65;;;30.83;;
75890;SDS011;64571;47.512;19.054;2022-11-09T14:35:42;89.03;;;31.47;;
75890;SDS011;64571;47.512;19.054;2022-11-09T14:39:04;82.72;;;29.40;;
75890;SDS011;64571;47.512;19.054;2022-11-09T14:42:36;82.30;;;28.55;;
75890;SDS011;64571;47.512;19.054;2022-11-09T14:46:04;82.85;;;29.25;;
75890;SDS011;64571;47.512;19.054;2022-11-09T14:49:27;78.22;;;29.83;;
75890;SDS011;64571;47.512;19.054;2022-11-09T14:52:49;83.63;;;28.70;;
75890;SDS011;64571;47.512;19.054;2022-11-09T14:56:13;90.32;;;30.25;;
75890;SDS011;64571;47.512;19.054;2022-11-09T14:59:37;91.00;;;30.88;;
75890;SDS011;64571;47.512;19.054;2022-11-09T15:06:46;85.40;;;30.25;;
75890;SDS011;64571;47.512;19.054;2022-11-09T15:10:17;85.10;;;31.60;;
75890;SDS011;64571;47.512;19.054;2022-11-09T15:13:39;78.45;;;28.12;;
75890;SDS011;64571;47.512;19.054;2022-11-09T15:21:13;78.37;;;29.37;;
75890;SDS011;64571;47.512;19.054;2022-11-09T15:24:55;75.28;;;27.85;;
75890;SDS011;64571;47.512;19.054;2022-11-09T15:28:18;79.40;;;28.03;;
75890;SDS011;64571;47.512;19.054;2022-11-09T15:31:54;80.80;;;30.15;;
75890;SDS011;64571;47.512;19.054;2022-11-09T15:35:17;83.65;;;29.87;;
75890;SDS011;64571;47.512;19.054;2022-11-09T15:38:39;81.05;;;30.70;;
75890;SDS011;64571;47.512;19.054;2022-11-09T15:42:01;76.78;;;28.67;;
75890;SDS011;64571;47.512;19.054;2022-11-09T15:45:22;79.40;;;29.43;;
75890;SDS011;64571;47.512;19.054;2022-11-09T15:48:43;80.60;;;28.52;;
75890;SDS011;64571;47.512;19.054;2022-11-09T15:52:08;80.43;;;29.25;;
75890;SDS011;64571;47.512;19.054;2022-11-09T15:55:31;81.78;;;30.73;;
75890;SDS011;64571;47.512;19.054;2022-11-09T15:58:53;77.72;;;29.30;;
75890;SDS011;64571;47.512;19.054;2022-11-09T16:02:14;80.23;;;29.17;;
75890;SDS011;64571;47.512;19.054;2022-11-09T16:05:35;83.70;;;30.98;;
75890;SDS011;64571;47.512;19.054;2022-11-09T16:08:56;75.32;;;27.55;;
75890;SDS011;64571;47.512;19.054;2022-11-09T16:12:17;69.90;;;28.02;;
75890;SDS011;64571;47.512;19.054;2022-11-09T16:15:38;76.55;;;29.23;;
75890;SDS011;64571;47.512;19.054;2022-11-09T16:18:59;73.27;;;28.03;;
75890;SDS011;64571;47.512;19.054;2022-11-09T16:22:20;79.25;;;29.12;;
75890;SDS011;64571;47.512;19.054;2022-11-09T16:25:41;75.87;;;26.60;;
75890;SDS011;64571;47.512;19.054;2022-11-09T16:29:04;72.32;;;28.45;;
75890;SDS011;64571;47.512;19.054;2022-11-09T16:32:25;76.85;;;28.70;;
75890;SDS011;64571;47.512;19.054;2022-11-09T16:35:46;74.87;;;29.33;;
75890;SDS011;64571;47.512;19.054;2022-11-09T16:39:08;82.62;;;30.15;;
75890;SDS011;64571;47.512;19.054;2022-11-09T16:42:33;81.55;;;28.83;;
75890;SDS011;64571;47.512;19.054;2022-11-09T17:04:31;78.57;;;28.50;;
75890;SDS011;64571;47.512;19.054;2022-11-09T17:07:52;74.37;;;28.62;;
75890;SDS011;64571;47.512;19.054;2022-11-09T17:11:13;72.63;;;29.00;;
75890;SDS011;64571;47.512;19.054;2022-11-09T17:14:34;76.93;;;28.10;;
75890;SDS011;64571;47.512;19.054;2022-11-09T17:17:55;79.93;;;30.55;;
75890;SDS011;64571;47.512;19.054;2022-11-09T17:21:16;72.50;;;28.12;;
75890;SDS011;64571;47.512;19.054;2022-11-09T17:24:37;74.55;;;29.52;;
75890;SDS011;64571;47.512;19.054;2022-11-09T17:27:58;68.10;;;27.30;;
75890;SDS011;64571;47.512;19.054;2022-11-09T17:31:19;77.50;;;30.48;;
75890;SDS011;64571;47.512;19.054;2022-11-09T17:34:42;76.35;;;29.52;;
75890;SDS011;64571;47.512;19.054;2022-11-09T17:38:03;73.20;;;29.58;;
75890;SDS011;64571;47.512;19.054;2022-11-09T17:41:24;79.20;;;31.27;;
75890;SDS011;64571;47.512;19.054;2022-11-09T17:44:44;83.97;;;29.67;;
75890;SDS011;64571;47.512;19.054;2022-11-09T17:48:05;80.75;;;30.85;;
75890;SDS011;64571;47.512;19.054;2022-11-09T17:51:26;80.62;;;30.60;;
75890;SDS011;64571;47.512;19.054;2022-11-09T17:54:47;74.87;;;29.05;;
75890;SDS011;64571;47.512;19.054;2022-11-09T17:58:08;78.70;;;29.92;;
75890;SDS011;64571;47.512;19.054;2022-11-09T18:01:29;83.07;;;31.50;;
75890;SDS011;64571;47.512;19.054;2022-11-09T18:04:50;75.32;;;29.95;;
75890;SDS011;64571;47.512;19.054;2022-11-09T18:08:12;80.65;;;31.75;;
75890;SDS011;64571;47.512;19.054;2022-11-09T18:11:33;80.95;;;31.60;;
75890;SDS011;64571;47.512;19.054;2022-11-09T18:14:54;82.12;;;30.85;;
75890;SDS011;64571;47.512;19.054;2022-11-09T18:18:15;79.73;;;30.37;;
75890;SDS011;64571;47.512;19.054;2022-11-09T18:21:37;81.87;;;32.85;;
75890;SDS011;64571;47.512;19.054;2022-11-09T18:24:58;87.82;;;31.80;;
75890;SDS011;64571;47.512;19.054;2022-11-09T18:28:19;86.53;;;29.87;;
75890;SDS011;64571;47.512;19.054;2022-11-09T18:31:40;85.80;;;32.47;;
75890;SDS011;64571;47.512;19.054;2022-11-09T18:35:02;73.87;;;30.13;;
75890;SDS011;64571;47.512;19.054;2022-11-09T18:38:22;73.12;;;28.50;;
75890;SDS011;64571;47.512;19.054;2022-11-09T18:41:48;77.93;;;30.12;;
75890;SDS011;64571;47.512;19.054;2022-11-09T18:45:10;74.90;;;30.55;;
75890;SDS011;64571;47.512;19.054;2022-11-09T18:48:30;81.78;;;30.88;;
75890;SDS011;64571;47.512;19.054;2022-11-09T18:51:51;78.27;;;30.70;;
75890;SDS011;64571;47.512;19.054;2022-11-09T18:55:12;77.30;;;30.45;;
75890;SDS011;64571;47.512;19.054;2022-11-09T18:58:33;76.00;;;31.05;;
75890;SDS011;64571;47.512;19.054;2022-11-09T19:01:54;78.60;;;31.35;;
75890;SDS011;64571;47.512;19.054;2022-11-09T19:05:15;74.60;;;29.85;;
75890;SDS011;64571;47.512;19.054;2022-11-09T19:08:36;71.57;;;28.97;;
75890;SDS011;64571;47.512;19.054;2022-11-09T19:12:17;67.47;;;26.50;;
75890;SDS011;64571;47.512;19.054;2022-11-09T19:15:44;66.05;;;26.37;;
75890;SDS011;64571;47.512;19.054;2022-11-09T19:19:05;78.37;;;28.55;;
75890;SDS011;64571;47.512;19.054;2022-11-09T19:22:26;69.60;;;29.35;;
75890;SDS011;64571;47.512;19.054;2022-11-09T19:25:48;71.70;;;27.37;;
75890;SDS011;64571;47.512;19.054;2022-11-09T19:29:11;67.68;;;27.67;;
75890;SDS011;64571;47.512;19.054;2022-11-09T19:32:33;72.78;;;28.10;;
75890;SDS011;64571;47.512;19.054;2022-11-09T19:35:54;66.75;;;26.73;;
75890;SDS011;64571;47.512;19.054;2022-11-09T19:39:34;68.75;;;27.15;;
75890;SDS011;64571;47.512;19.054;2022-11-09T19:43:02;64.40;;;28.20;;
75890;SDS011;64571;47.512;19.054;2022-11-09T19:46:27;67.30;;;27.08;;
75890;SDS011;64571;47.512;19.054;2022-11-09T19:49:51;69.00;;;26.98;;
75890;SDS011;64571;47.512;19.054;2022-11-09T19:53:12;66.90;;;27.62;;
75890;SDS011;64571;47.512;19.054;2022-11-09T19:56:33;63.08;;;26.05;;
75890;SDS011;64571;47.512;19.054;2022-11-09T19:59:56;65.67;;;26.80;;
75890;SDS011;64571;47.512;19.054;2022-11-09T20:03:17;67.80;;;26.90;;
75890;SDS011;64571;47.512;19.054;2022-11-09T20:06:38;70.45;;;27.85;;
75890;SDS011;64571;47.512;19.054;2022-11-09T20:09:59;67.05;;;26.17;;
75890;SDS011;64571;47.512;19.054;2022-11-09T20:13:22;69.37;;;28.60;;
75890;SDS011;64571;47.512;19.054;2022-11-09T20:16:43;68.27;;;29.03;;
75890;SDS011;64571;47.512;19.054;2022-11-09T20:20:07;66.03;;;27.00;;
75890;SDS011;64571;47.512;19.054;2022-11-09T20:23:29;61.85;;;27.10;;
75890;SDS011;64571;47.512;19.054;2022-11-09T20:26:50;73.50;;;29.33;;
75890;SDS011;64571;47.512;19.054;2022-11-09T20:30:11;63.83;;;26.05;;